Aviation Digital Data Service (ADDS)

Output produced by TAFs form (0747 UTC 01 August 2015)
found at http://aviationweather.gov/adds/tafs/
 
KCNM 010532Z 0106/0206 VRB03KT P6SM BKN120 
     FM011200 15009KT P6SM SCT090 SCT250